createdAt,value
2018-02-14T00:00:17.442Z,6.45
2018-02-14T00:02:45.008Z,6.65
2018-02-14T00:05:12.533Z,5.85
2018-02-14T00:07:40.857Z,6.60
2018-02-14T00:10:08.390Z,7.47
2018-02-14T00:12:35.959Z,6.80
2018-02-14T00:15:03.502Z,7.68
2018-02-14T00:17:31.051Z,7.95
2018-02-14T00:19:59.372Z,6.53
2018-02-14T00:22:26.909Z,6.62
2018-02-14T00:24:54.466Z,6.32
2018-02-14T00:27:21.998Z,7.22
2018-02-14T00:29:50.323Z,7.25
2018-02-14T00:32:17.857Z,6.75
2018-02-14T00:34:45.426Z,7.07
2018-02-14T00:37:12.969Z,7.37
2018-02-14T00:39:41.298Z,7.50
2018-02-14T00:42:08.829Z,6.22
2018-02-14T00:44:36.399Z,7.27
2018-02-14T00:47:03.942Z,7.28
2018-02-14T00:49:31.501Z,8.20
2018-02-14T00:51:59.034Z,7.33
2018-02-14T00:54:27.360Z,7.32
2018-02-14T00:56:54.893Z,6.85
2018-02-14T00:59:22.458Z,7.03
2018-02-14T01:01:49.992Z,6.70
2018-02-14T01:04:18.313Z,7.43
2018-02-14T01:06:45.837Z,6.95
2018-02-14T01:09:14.157Z,7.18
2018-02-14T01:11:41.689Z,7.35
2018-02-14T01:14:09.246Z,6.95
2018-02-14T01:16:36.792Z,7.10
2018-02-14T01:19:10.719Z,8.20
2018-02-14T01:21:38.397Z,7.70
2018-02-14T01:24:05.963Z,6.95
2018-02-14T01:26:33.497Z,7.12
2018-02-14T01:29:01.056Z,7.30
2018-02-14T01:31:28.594Z,7.53
2018-02-14T01:33:56.922Z,7.90
2018-02-14T01:36:24.454Z,6.75
2018-02-14T01:38:52.018Z,7.80
2018-02-14T01:41:19.557Z,7.90
2018-02-14T01:43:47.886Z,7.47
2018-02-14T01:46:15.422Z,7.78
2018-02-14T01:48:42.977Z,7.72
2018-02-14T01:51:10.518Z,7.65
2018-02-14T01:53:38.841Z,7.30
2018-02-14T01:56:06.374Z,7.62
2018-02-14T01:58:33.934Z,7.70
2018-02-14T02:01:01.468Z,7.62
2018-02-14T02:03:29.798Z,7.40
2018-02-14T02:05:57.330Z,7.15
2018-02-14T02:08:24.893Z,7.95
2018-02-14T02:10:52.426Z,7.62
2018-02-14T02:13:20.754Z,7.55
2018-02-14T02:15:48.285Z,8.55
2018-02-14T02:18:15.905Z,9.02
2018-02-14T02:20:43.407Z,8.73
2018-02-14T02:23:10.973Z,7.72
2018-02-14T02:25:38.509Z,7.57
2018-02-14T02:28:06.825Z,7.07
2018-02-14T02:30:34.403Z,7.62
2018-02-14T02:33:02.710Z,8.75
2018-02-14T02:35:31.044Z,7.87
2018-02-14T02:37:58.578Z,7.47
2018-02-14T02:40:32.201Z,7.22
2018-02-14T02:42:59.736Z,7.85
2018-02-14T02:45:27.296Z,8.20
2018-02-14T02:47:54.843Z,7.68
2018-02-14T02:50:23.170Z,8.15
2018-02-14T02:52:50.711Z,7.95
2018-02-14T02:55:18.278Z,8.10
2018-02-14T02:57:45.825Z,8.05
2018-02-14T03:00:13.400Z,7.72
2018-02-14T03:02:40.945Z,7.22
2018-02-14T03:05:08.514Z,8.33
2018-02-14T03:07:36.057Z,8.45
2018-02-14T03:10:03.618Z,7.50
2018-02-14T03:12:31.157Z,7.25
2018-02-14T03:14:59.481Z,8.20
2018-02-14T03:17:27.017Z,8.18
2018-02-14T03:19:54.578Z,8.35
2018-02-14T03:22:22.111Z,7.70
2018-02-14T03:24:50.433Z,7.20
2018-02-14T03:27:17.968Z,7.85
2018-02-14T03:29:45.533Z,7.70
2018-02-14T03:32:13.071Z,7.87
2018-02-14T03:34:41.402Z,7.50
2018-02-14T03:37:08.943Z,8.32
2018-02-14T03:39:36.503Z,7.78
2018-02-14T03:42:04.038Z,8.18
2018-02-14T03:44:31.599Z,7.75
2018-02-14T03:46:59.143Z,7.53
2018-02-14T03:49:27.466Z,7.78
2018-02-14T03:51:55.007Z,9.35
2018-02-14T03:54:22.567Z,8.63
2018-02-14T03:56:50.098Z,8.20
2018-02-14T03:59:18.435Z,8.45
2018-02-14T04:01:45.981Z,8.32
2018-02-14T04:04:13.540Z,8.23
2018-02-14T04:06:41.082Z,8.90
2018-02-14T04:09:08.644Z,8.27
2018-02-14T04:11:36.185Z,9.02
2018-02-14T04:14:04.526Z,7.82
2018-02-14T04:16:32.058Z,8.57
2018-02-14T04:18:59.613Z,9.20
2018-02-14T04:21:27.158Z,8.32
2018-02-14T04:23:54.714Z,7.82
2018-02-14T04:26:22.253Z,8.57
2018-02-14T04:28:50.582Z,9.00
2018-02-14T04:31:18.894Z,7.80
2018-02-14T04:33:46.434Z,7.45
2018-02-14T04:36:13.991Z,9.10
2018-02-14T04:38:41.532Z,8.23
2018-02-14T04:41:09.098Z,8.90
2018-02-14T04:43:36.630Z,9.10
2018-02-14T04:46:04.189Z,9.65
2018-02-14T04:48:31.730Z,9.23
2018-02-14T04:51:00.065Z,8.70
2018-02-14T04:53:27.598Z,8.65
2018-02-14T04:55:55.155Z,9.10
2018-02-14T04:58:22.685Z,8.57
2018-02-14T05:00:51.022Z,8.05
2018-02-14T05:03:18.553Z,9.40
2018-02-14T05:05:46.119Z,9.60
2018-02-14T05:08:13.661Z,9.93
2018-02-14T05:10:41.226Z,8.55
2018-02-14T05:13:08.780Z,9.25
2018-02-14T05:15:36.341Z,9.93
2018-02-14T05:18:03.878Z,9.00
2018-02-14T05:20:32.210Z,9.25
2018-02-14T05:22:59.750Z,10.45
2018-02-14T05:25:27.310Z,9.77
2018-02-14T05:27:54.841Z,9.20
2018-02-14T05:30:23.170Z,10.70
2018-02-14T05:32:50.707Z,10.50
2018-02-14T05:35:18.272Z,11.05
2018-02-14T05:37:45.810Z,10.50
2018-02-14T05:40:13.375Z,10.82
2018-02-14T05:42:40.917Z,9.82
2018-02-14T05:45:09.250Z,10.02
2018-02-14T05:47:36.785Z,10.75
2018-02-14T05:50:04.354Z,10.32
2018-02-14T05:52:31.897Z,10.30
2018-02-14T05:54:59.455Z,9.70
2018-02-14T05:57:26.994Z,9.70
2018-02-14T05:59:55.330Z,10.30
2018-02-14T06:02:22.877Z,9.40
2018-02-14T06:04:50.435Z,9.85
2018-02-14T06:07:17.975Z,9.68
2018-02-14T06:09:45.538Z,10.57
2018-02-14T06:12:13.078Z,9.70
2018-02-14T06:14:41.410Z,10.32
2018-02-14T06:17:08.955Z,9.63
2018-02-14T06:19:36.513Z,10.25
2018-02-14T06:22:04.051Z,11.18
2018-02-14T06:24:31.585Z,9.90
2018-02-14T06:26:59.926Z,10.20
2018-02-14T06:29:27.462Z,11.45
2018-02-14T06:53:31.931Z,10.95
2018-02-14T06:55:59.495Z,11.75
2018-02-14T06:58:27.039Z,12.23
2018-02-14T07:00:54.609Z,11.35
2018-02-14T07:03:22.155Z,12.50
2018-02-14T07:05:49.713Z,13.27
2018-02-14T07:08:17.243Z,11.85
2018-02-14T07:10:45.568Z,12.02
2018-02-14T07:13:13.101Z,11.63
2018-02-14T07:15:40.679Z,11.60
2018-02-14T07:18:08.227Z,12.05
2018-02-14T07:20:35.790Z,12.85
2018-02-14T07:23:03.338Z,13.25
2018-02-14T07:25:30.895Z,12.90
2018-02-14T07:27:59.206Z,12.98
2018-02-14T07:30:26.764Z,12.73
2018-02-14T07:32:54.315Z,14.20
2018-02-14T07:35:21.901Z,12.82
2018-02-14T07:37:49.420Z,12.95
2018-02-14T07:40:16.981Z,13.55
2018-02-14T07:42:44.522Z,13.77
2018-02-14T07:45:12.906Z,14.30
2018-02-14T07:47:41.257Z,15.32
2018-02-14T07:50:08.822Z,14.07
2018-02-14T07:52:36.371Z,13.68
2018-02-14T07:55:03.963Z,11.63
2018-02-14T07:57:32.266Z,13.95
2018-02-14T07:59:59.803Z,12.00
2018-02-14T08:02:28.138Z,12.48
2018-02-14T08:04:55.686Z,12.90
2018-02-14T08:07:23.246Z,12.20
2018-02-14T08:09:51.563Z,11.80
2018-02-14T08:12:19.893Z,13.80
2018-02-14T08:14:47.430Z,12.65
2018-02-14T08:17:14.989Z,13.55
2018-02-14T08:19:42.527Z,12.57
2018-02-14T08:22:10.861Z,12.60
2018-02-14T08:24:38.409Z,13.15
2018-02-14T08:27:05.974Z,12.25
2018-02-14T08:29:33.515Z,12.93
2018-02-14T08:32:01.078Z,12.93
2018-02-14T08:34:28.618Z,12.40
2018-02-14T08:36:56.186Z,12.85
2018-02-14T08:39:23.727Z,13.45
2018-02-14T08:41:52.066Z,13.90
2018-02-14T08:44:19.600Z,12.32
2018-02-14T08:46:47.168Z,12.20
2018-02-14T08:49:14.705Z,12.80
2018-02-14T08:51:42.282Z,13.35
2018-02-14T08:54:09.822Z,12.93
2018-02-14T08:56:37.389Z,12.75
2018-02-14T08:59:04.938Z,12.68
2018-02-14T09:01:32.503Z,12.10
2018-02-14T09:04:00.052Z,11.90
2018-02-14T09:06:27.645Z,11.60
2018-02-14T09:08:55.182Z,11.67
2018-02-14T09:11:22.744Z,11.75
2018-02-14T09:13:50.291Z,12.05
2018-02-14T09:16:18.616Z,11.83
2018-02-14T09:18:46.145Z,12.87
2018-02-14T09:21:13.710Z,12.17
2018-02-14T09:23:41.259Z,12.60
2018-02-14T09:26:08.817Z,11.55
2018-02-14T09:28:36.349Z,12.82
2018-02-14T09:31:03.914Z,13.67
2018-02-14T09:33:32.218Z,12.13
2018-02-14T09:35:59.786Z,12.77
2018-02-14T09:38:27.321Z,13.10
2018-02-14T09:40:54.894Z,12.48
2018-02-14T09:43:22.428Z,12.30
2018-02-14T09:45:50.766Z,12.25
2018-02-14T09:48:19.072Z,12.00
2018-02-14T09:50:46.647Z,12.93
2018-02-14T09:53:14.953Z,13.13
2018-02-14T09:55:42.506Z,13.10
2018-02-14T09:58:10.051Z,12.90
2018-02-14T10:00:38.422Z,12.43
2018-02-14T10:03:06.727Z,13.13
2018-02-14T10:05:34.271Z,12.20
2018-02-14T10:08:01.842Z,13.00
2018-02-14T10:10:29.383Z,13.52
2018-02-14T10:12:57.710Z,12.57
2018-02-14T10:15:25.246Z,12.60
2018-02-14T10:17:52.802Z,12.30
2018-02-14T10:20:20.333Z,12.87
2018-02-14T10:22:48.674Z,13.00
2018-02-14T10:25:16.206Z,12.50
2018-02-14T10:27:43.760Z,11.30
2018-02-14T10:30:11.295Z,12.50
2018-02-14T10:32:39.622Z,13.77
2018-02-14T10:35:07.154Z,12.50
2018-02-14T10:37:34.717Z,12.67
2018-02-14T10:40:02.246Z,12.37
2018-02-14T10:42:29.807Z,11.00
2018-02-14T10:44:58.113Z,10.90
2018-02-14T10:47:25.676Z,11.10
2018-02-14T10:49:53.206Z,12.10
2018-02-14T10:52:21.537Z,12.10
2018-02-14T10:54:49.066Z,11.90
2018-02-14T10:57:16.621Z,12.40
2018-02-14T10:59:44.910Z,11.77
2018-02-14T11:02:12.458Z,11.50
2018-02-14T11:04:45.646Z,11.97
2018-02-14T11:07:18.877Z,12.50
2018-02-14T11:09:46.419Z,11.80
2018-02-14T11:12:13.985Z,11.77
2018-02-14T11:14:41.525Z,11.67
2018-02-14T11:17:09.083Z,11.20
2018-02-14T11:19:36.626Z,10.13
2018-02-14T11:22:04.945Z,9.53
2018-02-14T11:24:32.477Z,10.50
2018-02-14T11:27:00.035Z,11.30
2018-02-14T11:29:28.322Z,11.50
2018-02-14T11:31:55.878Z,10.63
2018-02-14T11:34:23.409Z,9.27
2018-02-14T11:36:51.736Z,8.67
2018-02-14T11:39:19.271Z,9.77
2018-02-14T11:41:46.826Z,9.30
2018-02-14T11:44:14.362Z,9.23
2018-02-14T11:46:41.913Z,9.57
2018-02-14T11:49:09.438Z,9.17
2018-02-14T11:51:36.994Z,9.40
2018-02-14T11:54:04.518Z,8.57
2018-02-14T11:56:32.839Z,8.30
2018-02-14T11:59:00.370Z,9.73
2018-02-14T12:01:27.921Z,7.60
2018-02-14T12:03:56.209Z,9.10
2018-02-14T12:06:23.755Z,7.10
2018-02-14T12:08:52.046Z,8.00
2018-02-14T12:11:19.577Z,8.07
2018-02-14T12:13:47.890Z,8.33
2018-02-14T12:16:15.423Z,8.40
2018-02-14T12:18:43.750Z,8.47
2018-02-14T12:21:11.278Z,7.50
2018-02-14T12:23:38.829Z,7.20
2018-02-14T12:26:06.358Z,8.27
2018-02-14T12:28:33.913Z,8.87
2018-02-14T12:31:01.450Z,8.70
2018-02-14T12:33:29.002Z,8.57
2018-02-14T12:35:56.530Z,9.63
2018-02-14T12:38:24.084Z,8.27
2018-02-14T12:40:52.372Z,9.07
2018-02-14T12:43:19.930Z,8.60
2018-02-14T12:45:47.465Z,8.30
2018-02-14T12:48:15.787Z,8.87
2018-02-14T12:50:43.310Z,8.13
2018-02-14T12:53:11.626Z,8.60
2018-02-14T12:55:39.159Z,9.20
2018-02-14T12:58:06.707Z,9.10
2018-02-14T13:00:35.007Z,8.33
2018-02-14T13:03:02.555Z,8.70
2018-02-14T13:05:30.846Z,9.40
2018-02-14T13:07:58.402Z,9.40
2018-02-14T13:10:25.926Z,8.77
2018-02-14T13:12:54.261Z,8.37
2018-02-14T13:15:21.791Z,7.77
2018-02-14T13:17:49.355Z,8.63
2018-02-14T13:20:16.882Z,7.80
2018-02-14T13:22:44.430Z,8.00
2018-02-14T13:25:11.970Z,7.33
2018-02-14T13:27:39.530Z,7.43
2018-02-14T13:30:07.830Z,7.40
2018-02-14T13:32:35.383Z,6.00
2018-02-14T13:35:02.915Z,7.53
2018-02-14T13:37:30.474Z,7.07
2018-02-14T13:39:57.989Z,6.00
2018-02-14T13:42:26.307Z,6.63
2018-02-14T13:44:53.871Z,6.60
2018-02-14T13:47:21.407Z,6.57
2018-02-14T13:49:48.942Z,6.37
2018-02-14T13:52:17.261Z,6.43
2018-02-14T13:54:44.786Z,6.20
2018-02-14T13:57:13.098Z,6.90
2018-02-14T13:59:40.627Z,6.97
2018-02-14T14:02:08.184Z,7.93
2018-02-14T14:04:36.470Z,6.47
2018-02-14T14:07:04.018Z,6.30
2018-02-14T14:09:32.308Z,6.90
2018-02-14T14:11:59.862Z,5.90
2018-02-14T14:14:28.150Z,5.60
2018-02-14T14:16:55.677Z,6.40
2018-02-14T14:19:23.234Z,5.97
2018-02-14T14:21:50.759Z,6.60
2018-02-14T14:24:18.307Z,5.73
2018-02-14T14:26:45.838Z,6.60
2018-02-14T14:29:13.391Z,6.60
2018-02-14T14:31:41.677Z,6.50
2018-02-14T14:34:09.987Z,7.07
2018-02-14T14:36:37.522Z,6.23
2018-02-14T14:39:05.082Z,6.37
2018-02-14T14:41:32.610Z,6.17
2018-02-14T14:44:00.166Z,6.27
2018-02-14T14:46:27.691Z,6.70
2018-02-14T14:48:55.271Z,6.60
2018-02-14T14:51:22.807Z,6.10
2018-02-14T14:53:50.371Z,6.90
2018-02-14T14:56:17.888Z,7.27
2018-02-14T14:58:46.222Z,6.80
2018-02-14T15:01:13.790Z,7.67
2018-02-14T15:03:41.349Z,7.00
2018-02-14T15:06:08.897Z,7.40
2018-02-14T15:08:36.446Z,6.70
2018-02-14T15:11:03.977Z,7.47
2018-02-14T15:13:32.301Z,7.40
2018-02-14T15:15:59.836Z,6.43
2018-02-14T15:18:27.388Z,6.90
2018-02-14T15:20:54.911Z,6.37
2018-02-14T15:23:22.490Z,7.00
2018-02-14T15:25:50.019Z,6.67
2018-02-14T15:28:18.338Z,6.47
2018-02-14T15:30:45.863Z,7.83
2018-02-14T15:33:14.190Z,6.93
2018-02-14T15:35:41.717Z,7.80
2018-02-14T15:38:09.274Z,8.00
2018-02-14T15:40:37.562Z,7.10
2018-02-14T15:43:05.106Z,6.80
2018-02-14T15:45:33.391Z,6.60
2018-02-14T15:48:01.707Z,7.00
2018-02-14T15:50:29.230Z,7.60
2018-02-14T15:52:56.788Z,7.47
2018-02-14T15:55:24.329Z,6.50
2018-02-14T15:57:52.657Z,6.50
2018-02-14T16:00:20.190Z,6.13
2018-02-14T16:02:47.733Z,6.60
2018-02-14T16:05:16.022Z,7.23
2018-02-14T16:07:43.585Z,7.00
2018-02-14T16:10:11.114Z,6.37
2018-02-14T16:12:38.703Z,6.50
2018-02-14T16:15:06.983Z,6.43
2018-02-14T16:17:34.538Z,5.67
2018-02-14T16:20:02.066Z,6.43
2018-02-14T16:22:29.624Z,7.57
2018-02-14T16:24:57.195Z,6.20
2018-02-14T16:27:24.725Z,9.60
2018-02-14T16:29:52.275Z,7.27
2018-02-14T16:32:20.566Z,8.23
2018-02-14T16:34:48.118Z,6.60
2018-02-14T16:37:15.637Z,6.90
2018-02-14T16:39:43.189Z,7.80
2018-02-14T16:42:11.470Z,7.70
2018-02-14T16:44:39.027Z,8.17
2018-02-14T16:47:06.562Z,6.83
2018-02-14T16:49:34.116Z,8.30
2018-02-14T16:52:01.651Z,7.90
2018-02-14T16:54:29.202Z,8.43
2018-02-14T16:56:57.498Z,8.37
2018-02-14T16:59:25.053Z,7.03
2018-02-14T17:01:52.586Z,8.30
2018-02-14T17:04:20.130Z,7.47
2018-02-14T17:06:47.659Z,8.00
2018-02-14T17:09:15.985Z,8.20
2018-02-14T17:11:43.520Z,8.53
2018-02-14T17:14:11.078Z,9.90
2018-02-14T17:16:38.616Z,9.63
2018-02-14T17:19:06.940Z,7.80
2018-02-14T17:21:34.469Z,9.10
2018-02-14T17:24:02.796Z,10.43
2018-02-14T17:26:30.318Z,9.53
2018-02-14T17:28:57.878Z,11.40
2018-02-14T17:31:25.415Z,12.20
2018-02-14T17:33:53.738Z,16.07
2018-02-14T17:36:21.269Z,14.00
2018-02-14T17:38:48.852Z,14.60
2018-02-14T17:41:16.385Z,13.23
2018-02-14T17:43:44.740Z,13.40
2018-02-14T17:46:12.279Z,13.15
2018-02-14T17:48:39.841Z,11.90
2018-02-14T17:51:07.414Z,12.93
2018-02-14T17:53:34.974Z,12.07
2018-02-14T17:56:02.520Z,15.83
2018-02-14T17:58:30.103Z,19.30
2018-02-14T18:00:58.416Z,16.87
2018-02-14T18:03:26.035Z,16.20
2018-02-14T18:05:53.600Z,14.15
2018-02-14T18:08:21.154Z,14.07
2018-02-14T18:10:48.715Z,13.63
2018-02-14T18:13:16.242Z,12.30
2018-02-14T18:15:43.813Z,13.03
2018-02-14T18:18:11.355Z,13.70
2018-02-14T18:20:38.919Z,11.73
2018-02-14T18:23:06.467Z,12.80
2018-02-14T18:25:34.027Z,12.47
2018-02-14T18:28:01.572Z,12.87
2018-02-14T18:30:29.148Z,14.53
2018-02-14T18:32:56.694Z,12.50
2018-02-14T18:35:24.252Z,13.40
2018-02-14T18:37:51.802Z,12.97
2018-02-14T18:40:19.361Z,12.60
2018-02-14T18:42:47.675Z,12.33
2018-02-14T18:45:15.244Z,13.93
2018-02-14T18:47:42.813Z,12.57
2018-02-14T18:50:10.382Z,12.80
2018-02-14T18:52:37.919Z,14.30
2018-02-14T18:55:05.446Z,14.60
2018-02-14T18:57:33.002Z,13.57
2018-02-14T19:00:00.539Z,15.40
2018-02-14T19:02:28.867Z,13.77
2018-02-14T19:04:56.406Z,14.37
2018-02-14T19:07:23.963Z,16.17
2018-02-14T19:09:51.501Z,13.63
2018-02-14T19:12:19.834Z,12.53
2018-02-14T19:14:48.142Z,13.30
2018-02-14T19:17:15.698Z,11.07
2018-02-14T19:19:43.230Z,13.47
2018-02-14T19:22:10.789Z,13.30
2018-02-14T19:24:38.333Z,11.37
2018-02-14T19:27:05.893Z,12.80
2018-02-14T19:29:33.422Z,12.60
2018-02-14T19:32:01.750Z,13.60
2018-02-14T19:34:29.445Z,12.60
2018-02-14T19:36:57.081Z,11.17
2018-02-14T19:39:24.621Z,13.10
2018-02-14T19:41:52.165Z,10.93
2018-02-14T19:44:19.722Z,11.73
2018-02-14T19:46:47.254Z,13.23
2018-02-14T19:49:15.573Z,9.90
2018-02-14T19:51:43.113Z,10.93
2018-02-14T19:54:10.671Z,11.63
2018-02-14T19:56:38.207Z,11.47
2018-02-14T19:59:06.533Z,10.77
2018-02-14T20:01:34.074Z,11.13
2018-02-14T20:04:01.632Z,10.90
2018-02-14T20:06:29.166Z,11.13
2018-02-14T20:08:57.497Z,11.30
2018-02-14T20:11:25.054Z,10.73
2018-02-14T20:13:52.614Z,12.40
2018-02-14T20:16:20.150Z,12.57
2018-02-14T20:18:47.706Z,11.37
2018-02-14T20:21:15.242Z,12.70
2018-02-14T20:23:43.580Z,11.80
2018-02-14T20:26:11.890Z,10.40
2018-02-14T20:28:40.217Z,12.90
2018-02-14T20:31:07.754Z,11.30
2018-02-14T20:33:35.318Z,11.63
2018-02-14T20:36:02.858Z,12.40
2018-02-14T20:38:30.426Z,11.52
2018-02-14T20:40:57.971Z,10.93
2018-02-14T20:43:26.302Z,12.73
2018-02-14T20:45:53.847Z,11.93
2018-02-14T20:48:21.406Z,13.40
2018-02-14T20:50:48.937Z,14.43
2018-02-14T20:53:16.509Z,15.00
2018-02-14T20:55:44.046Z,15.03
2018-02-14T20:58:12.403Z,15.57
2018-02-14T21:00:40.697Z,14.67
2018-02-14T21:03:09.027Z,16.30
2018-02-14T21:05:36.566Z,15.50
2018-02-14T21:08:04.900Z,14.50
2018-02-14T21:10:32.433Z,14.50
2018-02-14T21:13:00.010Z,13.23
2018-02-14T21:15:27.546Z,14.33
2018-02-14T21:17:55.083Z,14.50
2018-02-14T21:20:22.637Z,10.80
2018-02-14T21:22:50.171Z,13.20
2018-02-14T21:25:17.734Z,13.67
2018-02-14T21:27:46.041Z,12.87
2018-02-14T21:30:13.612Z,11.57
2018-02-14T21:32:41.150Z,13.03
2018-02-14T21:35:08.797Z,12.77
2018-02-14T21:37:37.089Z,13.00
2018-02-14T21:40:04.656Z,13.97
2018-02-14T21:42:32.198Z,12.57
2018-02-14T21:45:00.522Z,12.20
2018-02-14T21:47:28.049Z,12.37
2018-02-14T21:49:55.611Z,12.63
2018-02-14T21:52:23.141Z,13.80
2018-02-14T21:54:51.462Z,12.30
2018-02-14T21:57:19.001Z,12.30
2018-02-14T21:59:47.321Z,15.50
2018-02-14T22:02:14.866Z,12.87
2018-02-14T22:04:42.424Z,11.97
2018-02-14T22:07:09.978Z,13.00
2018-02-14T22:09:37.545Z,12.80
2018-02-14T22:12:05.081Z,12.37
2018-02-14T22:14:32.643Z,13.97
2018-02-14T22:17:00.196Z,13.43
2018-02-14T22:19:28.518Z,12.00
2018-02-14T22:21:56.058Z,13.07
2018-02-14T22:24:24.554Z,14.23
2018-02-14T22:26:52.091Z,12.40
2018-02-14T22:29:19.663Z,13.47
2018-02-14T22:31:47.198Z,12.37
2018-02-14T22:34:14.950Z,12.60
2018-02-14T22:36:43.250Z,14.50
2018-02-14T22:39:10.809Z,13.10
2018-02-14T22:41:38.346Z,14.40
2018-02-14T22:44:06.674Z,12.50
2018-02-14T22:46:34.228Z,13.37
2018-02-14T22:49:01.784Z,13.87
2018-02-14T22:51:29.310Z,12.43
2018-02-14T22:53:57.625Z,12.20
2018-02-14T22:56:25.154Z,12.97
2018-02-14T22:58:52.718Z,14.20
2018-02-14T23:01:20.258Z,12.27
2018-02-14T23:03:48.586Z,12.80
2018-02-14T23:06:16.899Z,13.07
2018-02-14T23:08:44.467Z,12.60
2018-02-14T23:11:12.871Z,13.70
2018-02-14T23:13:40.434Z,11.27
2018-02-14T23:16:07.961Z,12.87
2018-02-14T23:18:35.522Z,11.67
2018-02-14T23:21:03.047Z,12.27
2018-02-14T23:23:30.611Z,13.70
2018-02-14T23:25:58.919Z,12.27
2018-02-14T23:28:26.447Z,12.83
2018-02-14T23:30:54.031Z,12.70
2018-02-14T23:33:21.604Z,13.07
2018-02-14T23:35:49.147Z,11.37
2018-02-14T23:38:16.682Z,12.40
2018-02-14T23:40:44.239Z,11.57
2018-02-14T23:43:11.783Z,11.83
2018-02-14T23:45:39.330Z,14.23
2018-02-14T23:48:06.863Z,11.23
2018-02-14T23:50:35.186Z,13.07
2018-02-14T23:53:02.714Z,13.40
2018-02-14T23:55:31.034Z,10.90
2018-02-14T23:57:58.565Z,13.03
